Time;durP1;ratioP1;P1;durP2;ratioP2;P2;SDS_P1;SDS_P2;PMS_P1;PMS_P2;Temp;Humidity;BMP_temperature;BMP_pressure;BME280_temperature;BME280_humidity;BME280_pressure;Samples;Min_cycle;Max_cycle;Signal;HPM_P1;HPM_P2
2023/07/29 00:00:57;;;;;;;7.68;5.53;;;;;;;17.21;100.00;100634.94;5022934;28;20036;-77
2023/07/29 00:03:22;;;;;;;6.75;5.80;;;;;;;17.20;100.00;100635.94;5020340;28;20088;-76
2023/07/29 00:05:48;;;;;;;6.57;5.88;;;;;;;17.20;100.00;100630.63;5028235;28;20049;-78
2023/07/29 00:08:14;;;;;;;6.95;6.15;;;;;;;17.22;100.00;100629.50;5029752;28;20038;-78
2023/07/29 00:10:39;;;;;;;7.80;6.25;;;;;;;17.24;100.00;100626.69;5029860;28;20440;-78
2023/07/29 00:13:06;;;;;;;7.30;5.97;;;;;;;17.22;100.00;100631.31;5029784;28;20033;-77
2023/07/29 00:15:32;;;;;;;7.30;6.03;;;;;;;17.19;100.00;100632.44;5008647;28;20058;-77
2023/07/29 00:17:57;;;;;;;7.45;6.20;;;;;;;17.23;100.00;100641.81;5019940;28;20577;-77
2023/07/29 00:20:22;;;;;;;7.13;5.85;;;;;;;17.20;100.00;100638.59;5026648;28;20048;-77
2023/07/29 00:22:49;;;;;;;8.05;7.18;;;;;;;17.19;100.00;100631.63;5005431;28;20120;-78
2023/07/29 00:25:16;;;;;;;7.30;6.53;;;;;;;17.16;100.00;100632.78;5010947;28;20091;-78
2023/07/29 00:27:44;;;;;;;8.23;7.10;;;;;;;17.15;100.00;100630.28;5025343;28;20037;-77
2023/07/29 00:30:13;;;;;;;7.55;6.78;;;;;;;17.17;100.00;100636.25;5010333;28;20510;-78
2023/07/29 00:32:38;;;;;;;8.40;7.20;;;;;;;17.17;100.00;100628.28;4997423;28;20424;-78
2023/07/29 00:35:04;;;;;;;8.20;6.85;;;;;;;17.15;100.00;100624.97;5008447;28;20017;-77
2023/07/29 00:37:30;;;;;;;7.82;7.05;;;;;;;17.15;100.00;100614.31;5029603;28;20029;-77
2023/07/29 00:39:58;;;;;;;7.85;6.63;;;;;;;17.17;100.00;100612.34;5030066;28;20034;-78
2023/07/29 00:42:24;;;;;;;7.05;6.35;;;;;;;17.10;100.00;100609.50;5009637;28;20029;-78
2023/07/29 00:44:49;;;;;;;9.27;6.50;;;;;;;17.11;100.00;100613.81;5007957;28;20091;-79
2023/07/29 00:47:16;;;;;;;10.60;6.68;;;;;;;17.07;100.00;100607.16;5009514;28;20025;-78
2023/07/29 00:49:47;;;;;;;12.48;7.30;;;;;;;17.09;100.00;100601.69;5011282;28;20029;-78
2023/07/29 00:52:16;;;;;;;9.70;7.65;;;;;;;17.08;100.00;100594.69;5025721;28;20057;-78
2023/07/29 00:54:44;;;;;;;8.05;7.10;;;;;;;17.05;100.00;100597.69;5027468;28;20117;-78
2023/07/29 00:57:17;;;;;;;9.38;7.50;;;;;;;17.05;100.00;100598.53;5012421;28;20045;-79
2023/07/29 00:59:43;;;;;;;7.97;7.18;;;;;;;17.06;100.00;100594.88;5003981;28;20108;-78
2023/07/29 01:02:09;;;;;;;8.13;7.32;;;;;;;17.04;100.00;100593.38;4999896;28;20117;-78
2023/07/29 01:04:34;;;;;;;10.80;7.25;;;;;;;17.03;100.00;100595.19;5010274;28;20077;-77
2023/07/29 01:07:35;;;;;;;8.63;7.60;;;;;;;17.03;100.00;100594.34;5032435;28;20063;-78
2023/07/29 01:10:10;;;;;;;7.57;6.82;;;;;;;17.03;100.00;100599.69;5013502;28;20378;-78
2023/07/29 01:13:03;;;;;;;8.60;7.57;;;;;;;16.99;100.00;100608.97;5013776;28;20025;-77
2023/07/29 01:15:34;;;;;;;9.32;7.25;;;;;;;17.00;100.00;100610.63;5013509;28;20056;-77
2023/07/29 01:18:23;;;;;;;9.20;7.72;;;;;;;16.99;100.00;100598.34;4994911;28;20025;-78
2023/07/29 01:20:52;;;;;;;9.63;7.65;;;;;;;16.95;100.00;100600.47;5017568;28;20037;-77
2023/07/29 01:23:33;;;;;;;9.65;7.78;;;;;;;16.95;100.00;100604.97;5029093;28;20036;-78
2023/07/29 01:25:59;;;;;;;12.57;7.70;;;;;;;16.95;100.00;100602.31;5025014;28;20040;-77
2023/07/29 01:28:25;;;;;;;11.50;7.85;;;;;;;16.98;100.00;100602.00;5014953;28;20404;-78
2023/07/29 01:30:57;;;;;;;8.88;7.72;;;;;;;16.99;100.00;100606.31;5032604;28;20029;-78
2023/07/29 01:33:30;;;;;;;8.25;7.38;;;;;;;16.98;100.00;100607.31;5012909;28;20021;-78
2023/07/29 01:36:01;;;;;;;10.25;7.25;;;;;;;17.00;100.00;100610.63;5032268;28;20073;-78
2023/07/29 01:38:34;;;;;;;8.65;6.72;;;;;;;17.01;100.00;100609.63;5032370;28;20021;-78
2023/07/29 01:41:05;;;;;;;9.63;6.80;;;;;;;17.00;100.00;100610.63;5031209;28;20083;-78
2023/07/29 01:43:32;;;;;;;7.43;6.43;;;;;;;17.00;100.00;100607.97;4999981;28;20039;-78
2023/07/29 01:45:57;;;;;;;7.18;6.47;;;;;;;16.97;100.00;100616.28;5006347;28;20319;-77
2023/07/29 01:48:23;;;;;;;7.95;6.80;;;;;;;16.95;100.00;100619.09;5026357;28;20111;-78
2023/07/29 01:50:49;;;;;;;8.18;6.45;;;;;;;16.92;100.00;100614.94;5032337;28;20030;-78
2023/07/29 01:53:15;;;;;;;7.45;6.50;;;;;;;16.92;100.00;100619.41;5031523;28;20040;-78
2023/07/29 01:55:44;;;;;;;7.18;5.85;;;;;;;16.91;100.00;100629.22;5028437;28;20413;-78
2023/07/29 01:58:10;;;;;;;6.50;5.47;;;;;;;16.90;100.00;100622.22;5010731;28;20072;-78
2023/07/29 02:00:36;;;;;;;6.68;5.55;;;;;;;16.89;100.00;100617.91;5032302;28;20057;-78
2023/07/29 02:03:01;;;;;;;6.75;5.18;;;;;;;16.90;100.00;100618.75;5014866;28;20026;-77
2023/07/29 02:05:27;;;;;;;8.13;5.40;;;;;;;16.89;100.00;100614.41;5028857;28;20618;-78
2023/07/29 02:07:54;;;;;;;6.40;4.97;;;;;;;16.88;100.00;100613.59;5032078;28;20025;-78
2023/07/29 02:10:20;;;;;;;8.05;5.07;;;;;;;16.85;100.00;100613.91;5032401;28;20517;-77
2023/07/29 02:12:45;;;;;;;6.53;4.40;;;;;;;16.88;100.00;100610.09;5031636;28;20030;-78
2023/07/29 02:15:11;;;;;;;6.50;4.13;;;;;;;16.86;100.00;100609.44;5022373;28;20018;-77
2023/07/29 02:17:44;;;;;;;5.50;4.20;;;;;;;16.86;100.00;100610.25;5012787;28;20092;-78
2023/07/29 02:20:10;;;;;;;4.30;3.80;;;;;;;16.84;100.00;100598.13;5027407;28;20473;-78
2023/07/29 02:22:36;;;;;;;4.63;3.90;;;;;;;16.82;100.00;100595.63;5032285;28;20034;-78
2023/07/29 02:25:02;;;;;;;6.20;4.20;;;;;;;16.81;100.00;100603.72;5014127;28;20044;-77
2023/07/29 02:27:30;;;;;;;6.40;4.13;;;;;;;16.75;100.00;100601.72;5030864;28;20032;-77
2023/07/29 02:29:56;;;;;;;4.35;3.67;;;;;;;16.72;100.00;100596.72;5017907;28;20108;-77
2023/07/29 02:32:21;;;;;;;4.68;3.65;;;;;;;16.73;100.00;100601.03;5028384;28;20370;-77
2023/07/29 02:34:46;;;;;;;7.60;4.07;;;;;;;16.70;100.00;100591.56;5011323;28;20033;-77
2023/07/29 02:37:12;;;;;;;5.68;4.03;;;;;;;16.66;100.00;100595.53;5028267;28;20506;-77
2023/07/29 02:39:40;;;;;;;6.18;4.35;;;;;;;16.64;100.00;100599.31;5031361;28;20048;-77
2023/07/29 02:42:06;;;;;;;5.00;3.80;;;;;;;16.61;100.00;100595.16;5031221;28;20025;-78
2023/07/29 02:44:31;;;;;;;4.75;4.00;;;;;;;16.61;100.00;100600.47;5031507;28;20026;-77
2023/07/29 02:46:57;;;;;;;5.80;4.35;;;;;;;16.58;100.00;100600.78;5013763;28;20608;-77
2023/07/29 02:49:23;;;;;;;4.90;4.05;;;;;;;16.56;100.00;100594.78;5028420;28;20029;-78
2023/07/29 02:51:49;;;;;;;6.22;4.65;;;;;;;16.50;100.00;100596.28;5031892;28;20036;-77
2023/07/29 02:54:14;;;;;;;4.75;3.97;;;;;;;16.51;100.00;100594.44;5013558;28;20026;-77
2023/07/29 02:56:39;;;;;;;4.90;4.43;;;;;;;16.51;100.00;100584.66;5013966;28;20057;-76
2023/07/29 02:59:05;;;;;;;5.40;4.35;;;;;;;16.44;100.00;100580.97;5007430;28;20013;-77
2023/07/29 03:01:30;;;;;;;5.32;4.70;;;;;;;16.47;100.00;100579.81;5029876;28;20477;-77
2023/07/29 03:03:56;;;;;;;7.68;4.90;;;;;;;16.46;100.00;100580.81;5009583;28;20041;-77
2023/07/29 03:06:21;;;;;;;6.53;5.03;;;;;;;16.45;100.00;100584.47;5013809;28;20038;-77
2023/07/29 03:08:46;;;;;;;9.48;5.00;;;;;;;16.47;100.00;100585.97;5028639;28;20751;-77
2023/07/29 03:11:14;;;;;;;6.00;4.63;;;;;;;16.39;100.00;100588.53;5013089;28;20056;-77
2023/07/29 03:13:40;;;;;;;7.00;5.68;;;;;;;16.41;100.00;100581.28;5030433;28;20063;-77
2023/07/29 03:16:16;;;;;;;6.43;5.15;;;;;;;16.41;100.00;100583.94;5031048;28;20057;-77
2023/07/29 03:18:44;;;;;;;6.90;5.07;;;;;;;16.37;100.00;100593.19;5031157;28;20101;-77
2023/07/29 03:21:10;;;;;;;7.40;5.18;;;;;;;16.35;100.00;100600.47;5028064;28;20032;-78
2023/07/29 03:23:38;;;;;;;6.88;5.53;;;;;;;16.30;100.00;100603.59;5038484;28;20075;-77
2023/07/29 03:26:09;;;;;;;6.85;5.13;;;;;;;16.27;100.00;100593.28;5014448;28;20172;-78
2023/07/29 03:28:40;;;;;;;7.28;5.35;;;;;;;16.23;100.00;100607.88;5020939;28;20037;-78
2023/07/29 03:31:07;;;;;;;7.78;5.28;;;;;;;16.25;100.00;100595.28;5010739;28;20101;-78
2023/07/29 03:33:35;;;;;;;5.60;5.10;;;;;;;16.23;100.00;100596.44;5010782;28;20037;-78
2023/07/29 03:36:01;;;;;;;7.93;4.80;;;;;;;16.24;100.00;100603.41;5030064;28;20531;-78
2023/07/29 03:38:27;;;;;;;6.30;5.10;;;;;;;16.22;100.00;100608.03;5027990;28;20398;-78
2023/07/29 03:40:53;;;;;;;7.15;5.03;;;;;;;16.17;100.00;100597.88;5015438;28;20044;-77
2023/07/29 03:43:21;;;;;;;7.05;5.55;;;;;;;16.15;100.00;100599.88;5010665;28;20029;-78
2023/07/29 03:45:46;;;;;;;7.13;5.55;;;;;;;16.11;100.00;100601.16;5027245;28;20496;-77
2023/07/29 03:48:11;;;;;;;7.82;4.97;;;;;;;16.12;100.00;100599.34;5012446;28;20025;-78
2023/07/29 03:50:40;;;;;;;7.78;5.78;;;;;;;16.10;100.00;100609.28;5026643;28;20076;-77
2023/07/29 03:53:05;;;;;;;8.95;5.20;;;;;;;16.03;100.00;100593.16;5028376;28;20025;-77
2023/07/29 03:55:31;;;;;;;5.72;5.10;;;;;;;16.02;100.00;100578.22;5026521;28;20389;-78
2023/07/29 03:57:57;;;;;;;12.73;5.32;;;;;;;15.98;100.00;100566.22;5019604;28;20032;-77
2023/07/29 04:00:23;;;;;;;6.72;5.22;;;;;;;15.99;100.00;100551.97;5030503;28;20025;-77
2023/07/29 04:02:49;;;;;;;6.20;5.60;;;;;;;16.01;100.00;100555.31;5028064;28;20402;-77
2023/07/29 04:05:14;;;;;;;9.18;5.90;;;;;;;16.02;100.00;100554.31;5011250;28;20539;-77
2023/07/29 04:07:40;;;;;;;8.00;5.38;;;;;;;15.99;100.00;100562.56;5011050;28;20026;-78
2023/07/29 04:10:06;;;;;;;5.80;5.15;;;;;;;15.99;100.00;100547.47;5030671;28;20083;-77
2023/07/29 04:12:32;;;;;;;9.35;5.30;;;;;;;15.97;100.00;100540.66;5011548;28;20112;-78
2023/07/29 04:14:57;;;;;;;6.90;5.70;;;;;;;15.91;100.00;100559.88;5026967;28;20124;-78
2023/07/29 04:17:22;;;;;;;6.80;5.20;;;;;;;15.94;100.00;100564.88;5025151;28;20500;-77
2023/07/29 04:19:48;;;;;;;8.10;5.38;;;;;;;15.92;100.00;100572.97;5028328;28;20552;-77
2023/07/29 04:22:15;;;;;;;6.80;5.07;;;;;;;15.95;100.00;100598.38;5012342;28;20030;-77
2023/07/29 04:24:43;;;;;;;5.63;4.95;;;;;;;15.93;100.00;100603.00;5029811;28;20025;-77
2023/07/29 04:27:09;;;;;;;6.53;4.72;;;;;;;15.95;100.00;100603.69;5029477;28;20025;-78
2023/07/29 04:29:35;;;;;;;5.75;4.38;;;;;;;15.97;100.00;100612.31;5012365;28;20040;-78
2023/07/29 04:32:01;;;;;;;6.22;4.80;;;;;;;15.95;100.00;100614.28;4996003;28;20037;-78
2023/07/29 04:34:27;;;;;;;6.50;4.35;;;;;;;15.94;100.00;100605.50;5009880;28;20738;-78
2023/07/29 04:36:52;;;;;;;5.70;4.30;;;;;;;15.94;100.00;100602.00;5029264;28;20020;-78
2023/07/29 04:39:18;;;;;;;6.63;4.55;;;;;;;15.95;100.00;100606.34;5028418;28;20381;-78
2023/07/29 04:41:43;;;;;;;4.88;4.13;;;;;;;15.96;100.00;100610.66;5028357;28;20083;-78
2023/07/29 04:44:09;;;;;;;4.72;3.90;;;;;;;15.98;100.00;100619.28;5008420;28;20083;-78
2023/07/29 04:46:36;;;;;;;4.55;3.53;;;;;;;15.98;100.00;100627.25;5017034;28;20026;-77
2023/07/29 04:49:02;;;;;;;5.68;3.78;;;;;;;15.97;100.00;100607.00;5027974;28;20030;-77
2023/07/29 04:51:31;;;;;;;4.60;3.70;;;;;;;15.96;100.00;100614.13;4999018;28;20342;-78
2023/07/29 04:53:57;;;;;;;7.88;3.90;;;;;;;15.99;100.00;100618.31;5027035;28;20027;-77
2023/07/29 04:56:22;;;;;;;4.78;3.67;;;;;;;15.99;100.00;100615.66;5023981;28;20029;-78
2023/07/29 04:58:47;;;;;;;6.15;3.83;;;;;;;16.02;100.00;100625.16;5029232;28;20029;-77
2023/07/29 05:01:13;;;;;;;8.73;3.63;;;;;;;15.99;100.00;100620.97;5028527;28;20021;-77
2023/07/29 05:03:44;;;;;;;6.85;3.90;;;;;;;16.02;100.00;100620.69;5011214;28;20735;-78
2023/07/29 05:06:10;;;;;;;5.05;3.33;;;;;;;16.04;100.00;100623.19;5009715;28;20052;-77
2023/07/29 05:08:37;;;;;;;4.43;3.22;;;;;;;16.08;100.00;100630.69;5023800;28;20025;-76
2023/07/29 05:11:03;;;;;;;4.05;3.03;;;;;;;16.10;100.00;100633.16;5028440;28;20367;-77
2023/07/29 05:13:28;;;;;;;3.60;3.25;;;;;;;16.11;100.00;100635.66;5026797;28;20080;-77
2023/07/29 05:15:54;;;;;;;6.10;3.13;;;;;;;16.12;100.00;100640.00;5028477;28;20083;-77
2023/07/29 05:18:19;;;;;;;6.03;3.40;;;;;;;16.16;100.00;100644.00;5010021;28;20021;-77
2023/07/29 05:20:46;;;;;;;4.45;2.97;;;;;;;16.18;100.00;100643.84;5028143;28;20088;-77
2023/07/29 05:23:12;;;;;;;5.28;3.38;;;;;;;16.19;100.00;100633.06;5026795;28;20457;-77
2023/07/29 05:25:37;;;;;;;6.10;3.15;;;;;;;16.19;100.00;100635.72;5009333;28;20119;-76
2023/07/29 05:28:03;;;;;;;3.83;3.15;;;;;;;16.23;100.00;100628.28;5028495;28;20044;-77
2023/07/29 05:30:31;;;;;;;5.45;2.63;;;;;;;16.24;100.00;100627.28;5009397;28;20033;-77
2023/07/29 05:33:00;;;;;;;5.82;3.33;;;;;;;16.26;100.00;100634.13;5028871;28;20021;-77
2023/07/29 05:35:25;;;;;;;5.30;3.00;;;;;;;16.24;100.00;100628.13;5029013;28;20029;-77
2023/07/29 05:37:51;;;;;;;5.10;3.22;;;;;;;16.31;100.00;100631.00;5027060;28;20502;-77
2023/07/29 05:40:17;;;;;;;5.45;2.90;;;;;;;16.33;100.00;100633.47;5028138;28;20409;-77
2023/07/29 05:42:42;;;;;;;3.58;3.10;;;;;;;16.38;100.00;100625.88;5008130;28;20029;-77
2023/07/29 05:45:11;;;;;;;4.97;3.40;;;;;;;16.37;100.00;100633.00;5027285;28;20049;-79
2023/07/29 05:47:37;;;;;;;5.07;3.15;;;;;;;16.42;100.00;100636.06;5028217;28;20079;-77
2023/07/29 05:50:06;;;;;;;7.32;3.70;;;;;;;16.53;100.00;100635.78;5012895;28;20453;-76
2023/07/29 05:52:32;;;;;;;4.90;3.63;;;;;;;16.57;100.00;100639.78;5031937;28;20054;-77
2023/07/29 05:54:57;;;;;;;6.38;3.45;;;;;;;16.68;100.00;100633.41;5014397;28;20416;-78
2023/07/29 05:57:22;;;;;;;6.30;3.80;;;;;;;16.75;100.00;100639.75;4995699;28;20034;-78
2023/07/29 05:59:48;;;;;;;4.35;3.65;;;;;;;16.85;100.00;100640.47;5014020;28;20034;-78
2023/07/29 06:02:13;;;;;;;4.32;3.53;;;;;;;16.96;100.00;100636.69;5029277;28;20029;-78
2023/07/29 06:04:38;;;;;;;4.60;3.60;;;;;;;16.99;100.00;100635.53;5013213;28;20072;-78
2023/07/29 06:07:05;;;;;;;5.15;3.75;;;;;;;17.06;100.00;100633.91;5031313;28;20033;-77
2023/07/29 06:09:33;;;;;;;4.85;3.55;;;;;;;17.15;100.00;100633.78;5013344;28;20064;-77
2023/07/29 06:11:58;;;;;;;6.43;3.30;;;;;;;17.21;100.00;100635.81;5012500;28;20036;-78
2023/07/29 06:14:23;;;;;;;4.13;3.00;;;;;;;17.34;100.00;100634.50;5013592;28;20021;-78
2023/07/29 06:16:52;;;;;;;5.18;3.10;;;;;;;17.44;100.00;100641.34;5011330;28;20021;-77
2023/07/29 06:19:20;;;;;;;4.45;3.30;;;;;;;17.57;100.00;100635.53;5031391;28;20033;-78
2023/07/29 06:21:46;;;;;;;3.28;2.92;;;;;;;17.67;100.00;100624.78;5029660;28;20496;-77
2023/07/29 06:24:11;;;;;;;8.77;3.45;;;;;;;17.67;100.00;100630.94;5013205;28;20033;-78
2023/07/29 06:26:40;;;;;;;3.92;3.03;;;;;;;17.66;100.00;100625.75;5030955;28;20424;-78
2023/07/29 06:29:05;;;;;;;5.63;3.22;;;;;;;17.66;100.00;100633.75;5027407;28;20570;-78
2023/07/29 06:31:32;;;;;;;5.13;3.13;;;;;;;17.64;100.00;100630.41;5027859;28;20033;-77
2023/07/29 06:33:58;;;;;;;3.30;3.00;;;;;;;17.63;100.00;100628.75;5026895;28;20052;-77
2023/07/29 06:36:23;;;;;;;3.92;3.20;;;;;;;17.64;100.00;100633.09;5028817;28;20021;-77
2023/07/29 06:38:48;;;;;;;3.92;3.05;;;;;;;17.66;100.00;100626.59;5031114;28;20052;-78
2023/07/29 06:41:14;;;;;;;3.60;2.70;;;;;;;17.71;100.00;100623.47;5030219;28;20047;-78
2023/07/29 06:43:39;;;;;;;4.45;3.00;;;;;;;17.72;100.00;100628.63;5031228;28;20432;-77
2023/07/29 06:46:04;;;;;;;3.88;2.90;;;;;;;17.78;100.00;100635.13;5032141;28;20033;-78
2023/07/29 06:48:30;;;;;;;4.63;2.95;;;;;;;17.79;100.00;100628.78;5011889;28;20030;-77
2023/07/29 06:51:00;;;;;;;5.05;2.90;;;;;;;17.87;100.00;100647.41;5029960;28;20033;-78
2023/07/29 06:53:26;;;;;;;6.07;2.47;;;;;;;17.94;100.00;100632.44;5029046;28;20125;-77
2023/07/29 06:55:52;;;;;;;3.47;2.70;;;;;;;17.98;100.00;100644.41;5013833;28;20029;-78
2023/07/29 06:58:17;;;;;;;5.32;2.40;;;;;;;18.05;100.00;100647.28;5031532;28;20714;-77
2023/07/29 07:00:45;;;;;;;8.63;2.60;;;;;;;18.23;100.00;100647.09;5029711;28;20091;-78
2023/07/29 07:03:11;;;;;;;3.30;2.10;;;;;;;18.39;100.00;100644.41;5012502;28;20045;-78
2023/07/29 07:05:36;;;;;;;2.85;2.30;;;;;;;18.49;99.21;100650.41;5023371;28;20055;-78
2023/07/29 07:08:02;;;;;;;3.78;2.50;;;;;;;18.59;99.51;100639.53;5028598;28;20182;-78
2023/07/29 07:10:30;;;;;;;5.55;2.70;;;;;;;18.66;99.85;100646.72;5012635;28;20068;-78
2023/07/29 07:13:01;;;;;;;5.00;2.40;;;;;;;18.65;98.24;100641.56;5013342;28;20418;-77
2023/07/29 07:15:26;;;;;;;5.22;2.70;;;;;;;18.68;98.60;100644.69;5030779;28;20026;-78
2023/07/29 07:17:54;;;;;;;2.88;2.33;;;;;;;18.69;95.70;100649.03;5031032;28;20036;-78
2023/07/29 07:20:19;;;;;;;3.35;2.20;;;;;;;18.69;95.72;100651.69;5030480;28;20036;-79
2023/07/29 07:22:45;;;;;;;4.70;2.40;;;;;;;18.81;96.62;100654.00;5010048;28;20025;-78
2023/07/29 07:25:10;;;;;;;3.33;1.80;;;;;;;18.92;96.61;100658.97;5029145;28;20018;-78
2023/07/29 07:27:38;;;;;;;3.28;2.15;;;;;;;19.02;95.04;100656.94;5030580;28;20021;-79
2023/07/29 07:30:06;;;;;;;3.83;2.30;;;;;;;19.13;94.98;100659.19;5009458;28;20090;-78
2023/07/29 07:32:32;;;;;;;4.63;2.55;;;;;;;19.21;93.41;100661.88;5027268;28;20120;-78
2023/07/29 07:34:57;;;;;;;3.42;2.20;;;;;;;19.23;92.71;100672.34;5028069;28;20108;-78
2023/07/29 07:37:22;;;;;;;2.70;2.13;;;;;;;19.22;92.31;100666.19;5029086;28;20017;-79
2023/07/29 07:39:48;;;;;;;2.20;2.00;;;;;;;19.23;91.97;100673.19;5027392;28;20029;-79
2023/07/29 07:42:13;;;;;;;3.63;1.95;;;;;;;19.31;93.37;100677.66;5009544;28;20482;-79
2023/07/29 07:44:39;;;;;;;2.75;1.85;;;;;;;19.50;93.11;100665.69;5028731;28;20068;-78
2023/07/29 07:47:04;;;;;;;3.85;2.13;;;;;;;19.84;90.75;100674.19;5030570;28;20033;-79
2023/07/29 07:49:30;;;;;;;4.45;1.70;;;;;;;20.08;89.68;100677.69;5029552;28;20389;-76
2023/07/29 07:51:55;;;;;;;2.63;1.85;;;;;;;20.35;88.12;100674.44;5030556;28;20034;-78
2023/07/29 07:54:20;;;;;;;4.10;2.17;;;;;;;20.58;87.73;100682.44;5030859;28;20025;-78
2023/07/29 07:56:46;;;;;;;1.75;1.63;;;;;;;20.76;84.47;100676.72;5022785;28;20029;-79
2023/07/29 07:59:11;;;;;;;2.25;1.73;;;;;;;20.87;83.33;100658.41;5024454;28;20398;-79
2023/07/29 08:01:40;;;;;;;2.05;1.52;;;;;;;20.99;80.92;100668.63;5029463;28;20517;-79
2023/07/29 08:04:05;;;;;;;1.92;1.50;;;;;;;20.85;82.06;100664.94;5019846;28;20045;-78
2023/07/29 08:06:32;;;;;;;3.03;1.50;;;;;;;20.81;83.08;100666.31;5029446;28;20048;-78
2023/07/29 08:09:00;;;;;;;4.25;1.50;;;;;;;20.78;82.06;100664.81;5028884;28;20025;-79
2023/07/29 08:11:25;;;;;;;3.30;1.70;;;;;;;20.92;81.94;100665.88;5011166;28;20044;-78
2023/07/29 08:13:51;;;;;;;3.75;1.50;;;;;;;20.98;80.39;100677.66;5010776;28;20025;-78
2023/07/29 08:16:16;;;;;;;2.50;1.50;;;;;;;21.01;80.90;100672.78;5027699;28;20420;-79
2023/07/29 08:18:42;;;;;;;2.30;1.30;;;;;;;20.87;79.59;100679.78;5028479;28;20424;-80
2023/07/29 08:21:10;;;;;;;1.35;1.10;;;;;;;20.76;81.55;100687.44;5012711;28;20477;-78
2023/07/29 08:23:36;;;;;;;1.50;1.40;;;;;;;20.68;82.64;100684.84;5029381;28;20033;-78
2023/07/29 08:26:04;;;;;;;2.40;1.70;;;;;;;20.57;82.20;100686.97;5007696;28;20085;-79
2023/07/29 08:28:31;;;;;;;4.75;1.60;;;;;;;20.50;82.39;100683.34;5013855;28;20038;-78
2023/07/29 08:30:59;;;;;;;2.75;1.40;;;;;;;20.32;82.50;100682.81;5017195;28;20033;-79
2023/07/29 08:33:24;;;;;;;3.13;1.30;;;;;;;20.17;83.05;100681.94;5027464;28;20105;-78
2023/07/29 08:35:50;;;;;;;3.30;1.55;;;;;;;20.16;83.79;100680.28;5027474;28;20100;-78
2023/07/29 08:38:15;;;;;;;2.78;1.52;;;;;;;20.12;83.05;100679.00;5029025;28;20108;-78
2023/07/29 08:40:53;;;;;;;2.05;1.67;;;;;;;20.09;83.60;100682.03;5009550;28;20021;-78
2023/07/29 08:43:20;;;;;;;1.67;1.33;;;;;;;19.99;82.62;100674.22;5029243;28;20022;-78
2023/07/29 08:45:46;;;;;;;2.35;1.50;;;;;;;20.35;84.26;100669.91;5011129;28;20104;-78
2023/07/29 08:48:16;;;;;;;1.90;1.40;;;;;;;20.97;81.13;100660.78;5029091;28;20073;-78
2023/07/29 08:50:45;;;;;;;3.15;1.35;;;;;;;21.64;80.54;100668.63;5028943;28;20075;-79
2023/07/29 08:53:11;;;;;;;1.83;1.23;;;;;;;22.08;77.56;100670.31;5029184;28;20025;-78
2023/07/29 08:55:36;;;;;;;3.17;1.45;;;;;;;22.33;74.31;100666.19;5030097;28;20036;-78
2023/07/29 08:58:03;;;;;;;2.50;1.30;;;;;;;22.31;73.92;100670.91;5012022;28;20021;-78
2023/07/29 09:00:28;;;;;;;2.63;1.27;;;;;;;22.13;72.45;100671.41;5011377;28;20037;-78
2023/07/29 09:02:54;;;;;;;2.08;1.20;;;;;;;21.99;75.42;100663.38;5029333;28;20025;-78
2023/07/29 09:05:21;;;;;;;1.42;1.10;;;;;;;21.87;74.51;100671.94;5029669;28;20025;-79
2023/07/29 09:07:47;;;;;;;1.70;1.00;;;;;;;21.84;76.55;100676.84;5021771;28;20573;-78
2023/07/29 09:10:13;;;;;;;1.80;1.00;;;;;;;21.83;74.52;100672.53;5029890;28;20159;-79
2023/07/29 09:12:40;;;;;;;1.80;1.17;;;;;;;21.76;73.68;100679.66;5006692;28;20183;-79
2023/07/29 09:15:05;;;;;;;1.83;1.20;;;;;;;21.92;76.01;100662.50;5015488;28;20032;-79
2023/07/29 09:17:33;;;;;;;1.45;1.00;;;;;;;22.07;74.27;100666.81;5028388;28;20025;-79
2023/07/29 09:19:58;;;;;;;1.45;1.10;;;;;;;22.27;75.42;100660.78;5025091;28;20980;-79
2023/07/29 09:22:26;;;;;;;2.17;1.15;;;;;;;22.40;72.21;100659.03;5018383;28;20021;-78
2023/07/29 09:24:52;;;;;;;2.80;1.35;;;;;;;22.55;70.53;100652.75;5031457;28;20026;-79
2023/07/29 09:27:27;;;;;;;1.58;1.20;;;;;;;22.85;71.26;100643.47;5030862;28;20527;-79
2023/07/29 09:29:54;;;;;;;1.63;1.10;;;;;;;23.56;70.70;100641.28;5015066;28;20129;-78
2023/07/29 09:32:24;;;;;;;2.00;1.50;;;;;;;23.54;66.35;100658.59;5013459;28;20108;-78
2023/07/29 09:34:49;;;;;;;2.95;1.30;;;;;;;23.44;68.77;100649.06;5031303;28;20434;-79
2023/07/29 09:37:22;;;;;;;2.55;1.48;;;;;;;23.34;67.44;100645.94;5031369;28;20022;-79
2023/07/29 09:39:49;;;;;;;1.80;1.17;;;;;;;23.36;69.29;100648.44;5007539;28;20449;-84
2023/07/29 09:42:19;;;;;;;2.17;1.20;;;;;;;23.03;68.59;100651.81;5028086;28;20378;-83
2023/07/29 09:44:45;;;;;;;2.08;1.10;;;;;;;22.82;71.01;100654.59;5026928;28;20034;-80
2023/07/29 09:47:24;;;;;;;2.58;1.50;;;;;;;22.65;71.59;100659.41;5031677;28;20029;-84
2023/07/29 09:49:51;;;;;;;2.10;1.40;;;;;;;22.52;71.02;100660.16;5012518;28;20029;-83
2023/07/29 09:52:18;;;;;;;2.33;1.40;;;;;;;22.22;72.28;100669.41;5021408;28;20050;-79
2023/07/29 09:54:44;;;;;;;2.15;1.38;;;;;;;21.97;73.12;100676.16;5014475;28;20029;-80
2023/07/29 09:57:16;;;;;;;1.20;1.10;;;;;;;21.75;73.94;100672.66;5030552;28;20075;-81
2023/07/29 09:59:59;;;;;;;1.65;1.20;;;;;;;21.55;75.47;100672.44;5027265;28;20029;-80
2023/07/29 10:02:28;;;;;;;1.42;1.20;;;;;;;21.27;75.37;100670.47;5012100;28;20499;-81
2023/07/29 10:04:55;;;;;;;2.33;1.45;;;;;;;21.16;76.65;100662.88;5012089;28;20046;-81
2023/07/29 10:07:20;;;;;;;1.35;1.10;;;;;;;21.50;77.64;100664.13;5008012;28;20129;-80
2023/07/29 10:09:47;;;;;;;1.42;1.20;;;;;;;21.99;75.83;100655.34;5022314;28;20017;-83
2023/07/29 10:12:13;;;;;;;5.03;1.52;;;;;;;22.43;74.22;100650.63;5010695;28;20039;-82
2023/07/29 10:14:47;;;;;;;2.55;1.52;;;;;;;22.70;71.54;100646.22;5031330;28;20033;-82
2023/07/29 10:17:15;;;;;;;2.42;1.30;;;;;;;22.87;70.96;100652.16;5031688;28;20056;-78
2023/07/29 10:19:44;;;;;;;2.58;1.40;;;;;;;23.21;70.08;100651.25;5032253;28;20103;-79
2023/07/29 10:22:12;;;;;;;2.60;1.60;;;;;;;23.44;65.30;100648.25;5014674;28;20021;-79
2023/07/29 10:24:46;;;;;;;2.85;1.45;;;;;;;23.78;66.95;100651.88;5031894;28;20030;-80
2023/07/29 10:27:17;;;;;;;2.92;1.30;;;;;;;24.06;67.00;100647.16;5029691;28;20029;-80
2023/07/29 10:29:46;;;;;;;2.15;1.30;;;;;;;24.25;65.78;100640.94;5013451;28;20034;-80
2023/07/29 10:32:12;;;;;;;1.80;1.20;;;;;;;24.45;65.70;100643.66;5031400;28;20064;-80
2023/07/29 10:34:44;;;;;;;1.42;1.20;;;;;;;24.53;63.89;100645.28;5030548;28;20068;-81
2023/07/29 10:37:10;;;;;;;;;;;;;;;24.84;68.06;100639.22;5031051;28;20437;-82
2023/07/29 10:39:40;;;;;;;2.38;1.55;;;;;;;24.66;61.92;100637.19;5029098;28;19913;-81
2023/07/29 10:42:06;;;;;;;2.22;1.40;;;;;;;24.76;62.71;100625.97;5027932;28;20032;-81
2023/07/29 10:44:43;;;;;;;2.08;1.40;;;;;;;24.56;62.39;100626.03;5012790;28;20406;-80
2023/07/29 10:47:12;;;;;;;2.58;1.60;;;;;;;24.28;61.69;100631.66;5030953;28;20083;-81
2023/07/29 10:49:41;;;;;;;3.17;1.50;;;;;;;24.05;63.66;100624.00;5029310;28;20029;-81
2023/07/29 10:52:06;;;;;;;3.70;1.60;;;;;;;23.76;64.46;100627.91;5026081;28;20045;-81
2023/07/29 10:54:45;;;;;;;2.22;1.70;;;;;;;23.49;66.28;100624.28;5012453;28;20029;-82
2023/07/29 10:57:17;;;;;;;1.83;1.40;;;;;;;23.42;66.69;100623.44;5014448;28;20033;-81
2023/07/29 10:59:55;;;;;;;1.80;1.33;;;;;;;23.38;67.38;100630.25;5023369;28;20025;-81
2023/07/29 11:02:27;;;;;;;2.17;1.35;;;;;;;23.22;67.38;100622.59;5011583;28;20108;-81
2023/07/29 11:04:53;;;;;;;4.32;1.20;;;;;;;22.87;65.91;100619.13;5029178;28;20045;-81
2023/07/29 11:07:23;;;;;;;2.40;1.30;;;;;;;22.66;67.12;100636.09;5027712;28;20055;-81
2023/07/29 11:09:51;;;;;;;1.20;1.10;;;;;;;22.54;69.20;100632.31;5029498;28;20393;-81
2023/07/29 11:12:45;;;;;;;3.10;1.60;;;;;;;22.57;70.10;100634.59;5027036;28;20393;-81
2023/07/29 11:15:11;;;;;;;3.72;1.42;;;;;;;22.40;70.13;100634.06;5028922;28;20024;-81
2023/07/29 11:17:49;;;;;;;3.22;1.45;;;;;;;22.31;70.26;100635.25;5023301;28;20029;-80
2023/07/29 11:20:16;;;;;;;1.90;1.38;;;;;;;22.19;71.29;100638.47;5028945;28;20061;-79